Time;durP1;ratioP1;P1;durP2;ratioP2;P2;SDS_P1;SDS_P2;PMS_P1;PMS_P2;Temp;Humidity;BMP_temperature;BMP_pressure;BME280_temperature;BME280_humidity;BME280_pressure;Samples;Min_cycle;Max_cycle;Signal;HPM_P1;HPM_P2
2023/06/02 00:01:18;;;;;;;8.33;3.90;;;15.30;99.90;;;;;;5059843;28;20308;-77
2023/06/02 00:04:04;;;;;;;10.47;4.23;;;15.20;99.90;;;;;;5059792;28;20188;-78
2023/06/02 00:06:51;;;;;;;12.27;4.53;;;15.30;99.90;;;;;;5075334;28;20784;-77
2023/06/02 00:09:38;;;;;;;11.13;4.23;;;15.30;99.90;;;;;;5075307;28;20221;-77
2023/06/02 00:12:23;;;;;;;9.97;4.20;;;15.20;99.90;;;;;;5074764;28;20567;-76
2023/06/02 00:15:10;;;;;;;11.27;4.60;;;15.10;99.90;;;;;;5059841;28;20241;-82
2023/06/02 00:17:55;;;;;;;11.17;4.50;;;14.90;99.90;;;;;;5061486;28;20244;-84
2023/06/02 00:20:41;;;;;;;11.43;4.53;;;14.80;99.90;;;;;;5074809;28;20705;-80
2023/06/02 00:23:29;;;;;;;15.00;5.00;;;14.80;99.90;;;;;;5074684;28;20213;-81
2023/06/02 00:26:15;;;;;;;13.50;4.90;;;14.70;99.90;;;;;;5059467;28;20291;-82
2023/06/02 00:29:23;;;;;;;9.00;4.57;;;14.70;99.90;;;;;;5062875;28;20244;-80
2023/06/02 00:32:08;;;;;;;11.87;5.20;;;14.70;99.90;;;;;;5074489;28;20181;-81
2023/06/02 00:34:54;;;;;;;12.77;5.60;;;14.60;99.90;;;;;;5074311;28;20236;-82
2023/06/02 00:37:40;;;;;;;13.33;5.87;;;14.60;99.90;;;;;;5074464;28;20275;-82
2023/06/02 00:40:25;;;;;;;13.17;4.77;;;14.50;99.90;;;;;;5074326;28;20402;-82
2023/06/02 00:43:11;;;;;;;13.07;4.93;;;14.40;99.90;;;;;;5059096;28;20224;-82
2023/06/02 00:45:56;;;;;;;11.60;5.10;;;14.20;99.90;;;;;;5074008;28;20233;-82
2023/06/02 00:48:42;;;;;;;12.63;5.50;;;14.20;99.90;;;;;;5074165;28;20205;-80
2023/06/02 00:51:28;;;;;;;13.97;5.07;;;14.10;99.90;;;;;;5059066;28;20197;-81
2023/06/02 00:54:36;;;;;;;11.90;4.77;;;14.10;99.90;;;;;;5061431;28;20213;-81
2023/06/02 00:57:28;;;;;;;12.10;5.10;;;14.00;99.90;;;;;;5059055;28;20217;-83
2023/06/02 01:00:14;;;;;;;11.33;5.30;;;14.00;99.90;;;;;;5058835;28;20279;-82
2023/06/02 01:03:00;;;;;;;11.93;4.80;;;14.00;99.90;;;;;;5073939;28;20203;-82
2023/06/02 01:05:50;;;;;;;14.57;5.30;;;14.00;99.90;;;;;;5073865;28;20590;-82
2023/06/02 01:08:37;;;;;;;11.83;5.17;;;14.00;99.90;;;;;;5058881;28;20213;-81
2023/06/02 01:11:23;;;;;;;13.93;5.30;;;13.90;99.90;;;;;;5058665;28;20569;-81
2023/06/02 01:14:09;;;;;;;13.67;5.70;;;13.90;99.90;;;;;;5073672;28;20270;-83
2023/06/02 01:16:55;;;;;;;12.57;5.20;;;13.90;99.90;;;;;;5058913;28;20228;-81
2023/06/02 01:19:41;;;;;;;12.20;5.77;;;13.80;99.90;;;;;;5073609;28;20217;-81
2023/06/02 01:22:29;;;;;;;13.40;5.37;;;13.70;99.90;;;;;;5058887;28;20567;-82
2023/06/02 01:25:27;;;;;;;13.30;5.50;;;13.70;99.90;;;;;;5058805;28;20704;-82
2023/06/02 01:28:13;;;;;;;15.77;5.63;;;13.70;99.90;;;;;;5074172;28;20344;-82
2023/06/02 01:31:26;;;;;;;13.73;5.90;;;13.60;99.90;;;;;;5058726;28;20264;-82
2023/06/02 01:34:22;;;;;;;11.30;5.40;;;13.60;99.90;;;;;;5073674;28;20240;-82
2023/06/02 01:37:09;;;;;;;10.87;5.50;;;13.50;99.90;;;;;;5073730;28;20217;-83
2023/06/02 01:39:55;;;;;;;13.90;5.60;;;13.50;99.90;;;;;;5058493;28;20352;-82
2023/06/02 01:42:42;;;;;;;12.77;5.97;;;13.50;99.90;;;;;;5058562;28;20185;-81
2023/06/02 01:45:51;;;;;;;12.23;6.10;;;13.50;99.90;;;;;;5073637;28;20291;-81
2023/06/02 01:48:36;;;;;;;15.53;6.17;;;13.40;99.90;;;;;;5058323;28;20201;-80
2023/06/02 01:51:22;;;;;;;14.93;5.73;;;13.30;99.90;;;;;;5073249;28;20624;-81
2023/06/02 01:54:08;;;;;;;14.07;6.07;;;13.30;99.90;;;;;;5073171;28;20282;-80
2023/06/02 01:56:53;;;;;;;12.97;6.10;;;13.30;99.90;;;;;;5058177;28;20343;-80
2023/06/02 01:59:39;;;;;;;12.90;5.70;;;13.30;99.90;;;;;;5073256;28;20270;-80
2023/06/02 02:02:24;;;;;;;14.63;5.97;;;13.40;99.90;;;;;;5058159;28;20563;-81
2023/06/02 02:05:10;;;;;;;14.93;5.80;;;13.40;99.90;;;;;;5072799;28;20749;-81
2023/06/02 02:08:18;;;;;;;11.97;5.83;;;13.40;99.90;;;;;;5061579;28;20219;-80
2023/06/02 02:11:04;;;;;;;13.43;5.73;;;13.50;99.90;;;;;;5057885;28;20225;-82
2023/06/02 02:13:50;;;;;;;12.90;5.83;;;13.60;99.90;;;;;;5072938;28;20236;-82
2023/06/02 02:16:36;;;;;;;12.47;5.80;;;13.50;99.90;;;;;;5057990;28;20212;-82
2023/06/02 02:19:23;;;;;;;14.33;6.00;;;13.50;99.90;;;;;;5072950;28;20629;-82
2023/06/02 02:22:09;;;;;;;14.03;5.80;;;13.50;99.90;;;;;;5073063;28;20619;-81
2023/06/02 02:24:54;;;;;;;12.87;5.87;;;13.40;99.90;;;;;;5073133;28;20240;-81
2023/06/02 02:27:40;;;;;;;14.27;5.43;;;13.40;99.90;;;;;;5057979;28;20677;-81
2023/06/02 02:30:26;;;;;;;11.47;5.57;;;13.30;99.90;;;;;;5057777;28;20213;-81
2023/06/02 02:33:12;;;;;;;12.87;5.17;;;13.40;99.90;;;;;;5057676;28;20279;-81
2023/06/02 02:35:57;;;;;;;12.57;5.43;;;13.30;99.90;;;;;;5072877;28;20290;-82
2023/06/02 02:38:43;;;;;;;11.27;5.33;;;13.40;99.90;;;;;;5072797;28;20710;-81
2023/06/02 02:41:28;;;;;;;11.43;5.43;;;13.30;99.90;;;;;;5057705;28;20693;-80
2023/06/02 02:44:13;;;;;;;15.57;5.50;;;13.40;99.90;;;;;;5057272;28;20304;-80
2023/06/02 02:46:59;;;;;;;10.47;5.23;;;13.50;99.90;;;;;;5072434;28;20716;-82
2023/06/02 02:49:46;;;;;;;12.30;5.10;;;13.50;99.90;;;;;;5072610;28;20213;-79
2023/06/02 02:52:32;;;;;;;10.47;5.13;;;13.50;99.90;;;;;;5072592;28;20193;-78
2023/06/02 02:55:17;;;;;;;14.23;5.47;;;13.50;99.90;;;;;;5072526;28;20228;-81
2023/06/02 02:58:02;;;;;;;12.50;5.13;;;13.50;99.90;;;;;;5057392;28;20225;-81
2023/06/02 03:00:48;;;;;;;13.43;5.70;;;13.50;99.90;;;;;;5072831;28;20225;-81
2023/06/02 03:03:34;;;;;;;10.97;5.80;;;13.40;99.90;;;;;;5057543;28;20191;-81
2023/06/02 03:06:21;;;;;;;9.90;5.37;;;13.40;99.90;;;;;;5059607;28;20221;-82
2023/06/02 03:09:29;;;;;;;10.87;5.63;;;13.40;99.90;;;;;;5074825;28;20566;-83
2023/06/02 03:12:14;;;;;;;12.30;5.77;;;13.60;99.90;;;;;;5074383;28;20201;-82
2023/06/02 03:15:01;;;;;;;9.63;5.33;;;13.50;99.90;;;;;;5074108;28;20236;-81
2023/06/02 03:17:50;;;;;;;13.77;5.50;;;13.50;99.90;;;;;;5075120;28;20196;-81
2023/06/02 03:20:36;;;;;;;15.07;5.90;;;13.50;99.90;;;;;;5061804;28;20251;-80
2023/06/02 03:23:22;;;;;;;10.97;5.37;;;13.50;99.90;;;;;;5061100;28;20216;-80
2023/06/02 03:26:10;;;;;;;10.43;5.20;;;13.40;99.90;;;;;;5076073;28;20220;-81
2023/06/02 03:28:56;;;;;;;12.87;6.33;;;13.40;99.90;;;;;;5060999;28;20205;-81
2023/06/02 03:31:41;;;;;;;12.43;5.67;;;13.40;99.90;;;;;;5076206;28;20786;-81
2023/06/02 03:34:28;;;;;;;13.07;5.60;;;13.30;99.90;;;;;;5076043;28;20225;-81
2023/06/02 03:37:14;;;;;;;11.47;5.73;;;13.40;99.90;;;;;;5061070;28;20359;-82
2023/06/02 03:39:59;;;;;;;15.67;5.87;;;13.40;99.90;;;;;;5076054;28;20267;-82
2023/06/02 03:42:45;;;;;;;10.77;5.67;;;13.50;99.90;;;;;;5075767;28;20778;-82
2023/06/02 03:45:31;;;;;;;16.07;6.93;;;13.30;99.90;;;;;;5075519;28;20705;-81
2023/06/02 03:48:17;;;;;;;14.30;6.77;;;13.30;99.90;;;;;;5075657;28;20194;-81
2023/06/02 03:51:03;;;;;;;12.70;6.43;;;13.30;99.90;;;;;;5075666;28;20709;-81
2023/06/02 03:53:51;;;;;;;11.90;6.10;;;13.40;99.90;;;;;;5060751;28;20284;-81
2023/06/02 03:56:36;;;;;;;18.23;6.70;;;13.30;99.90;;;;;;5060480;28;20224;-81
2023/06/02 03:59:45;;;;;;;17.80;6.70;;;13.20;99.90;;;;;;5075871;28;20550;-82
2023/06/02 04:02:31;;;;;;;13.63;6.33;;;13.30;99.90;;;;;;5060589;28;20204;-81
2023/06/02 04:05:16;;;;;;;14.10;6.50;;;13.20;99.90;;;;;;5075156;28;20228;-81
2023/06/02 04:08:02;;;;;;;14.87;6.70;;;13.20;99.90;;;;;;5060168;28;20299;-80
2023/06/02 04:10:48;;;;;;;20.47;7.10;;;13.30;99.90;;;;;;5075303;28;20225;-81
2023/06/02 04:13:34;;;;;;;17.87;7.17;;;13.20;99.90;;;;;;5059721;28;20202;-81
2023/06/02 04:16:19;;;;;;;18.53;7.57;;;13.20;99.90;;;;;;5059891;28;20229;-80
2023/06/02 04:19:05;;;;;;;17.90;7.60;;;13.30;99.90;;;;;;5075178;28;20240;-81
2023/06/02 04:21:52;;;;;;;16.07;7.83;;;13.20;99.90;;;;;;5059892;28;20197;-80
2023/06/02 04:24:40;;;;;;;16.60;7.23;;;13.30;99.90;;;;;;5059589;28;20224;-80
2023/06/02 04:27:26;;;;;;;19.33;7.93;;;13.30;99.90;;;;;;5074834;28;20256;-80
2023/06/02 04:30:11;;;;;;;19.07;7.57;;;13.40;99.90;;;;;;5074398;28;20279;-80
2023/06/02 04:32:57;;;;;;;16.40;7.37;;;13.40;99.90;;;;;;5059969;28;20190;-80
2023/06/02 04:35:43;;;;;;;18.97;8.00;;;13.40;99.90;;;;;;5074835;28;20229;-81
2023/06/02 04:38:51;;;;;;;13.80;7.43;;;13.40;99.90;;;;;;5074672;28;20189;-83
2023/06/02 04:41:37;;;;;;;15.03;7.73;;;13.50;99.90;;;;;;5074716;28;20568;-80
2023/06/02 04:44:23;;;;;;;22.47;7.27;;;13.80;99.90;;;;;;5074501;28;20295;-79
2023/06/02 04:47:09;;;;;;;13.17;7.27;;;13.80;99.90;;;;;;5058940;28;21236;-80
2023/06/02 04:49:55;;;;;;;15.73;7.00;;;13.80;99.90;;;;;;5073968;28;20581;-80
2023/06/02 04:52:42;;;;;;;14.37;6.53;;;13.90;99.90;;;;;;5075122;28;20201;-86
2023/06/02 04:55:28;;;;;;;19.77;6.90;;;14.00;99.90;;;;;;5074996;28;20589;-90
2023/06/02 04:58:13;;;;;;;12.93;6.40;;;14.00;99.90;;;;;;5060043;28;20266;-91
2023/06/02 05:01:00;;;;;;;16.20;6.97;;;14.10;99.90;;;;;;5059444;28;20735;-88
2023/06/02 05:03:45;;;;;;;17.77;7.00;;;14.00;99.90;;;;;;5075661;28;20201;-90
2023/06/02 05:06:31;;;;;;;15.13;6.40;;;14.00;99.90;;;;;;5075022;28;20531;-89
2023/06/02 05:09:16;;;;;;;16.07;7.00;;;13.90;99.90;;;;;;5074512;28;20591;-89
2023/06/02 05:12:03;;;;;;;16.87;6.93;;;13.90;99.90;;;;;;5074055;28;20201;-81
2023/06/02 05:14:48;;;;;;;12.17;6.50;;;13.90;99.90;;;;;;5074084;28;20322;-80
2023/06/02 05:17:34;;;;;;;17.20;7.33;;;14.00;99.90;;;;;;5058540;28;20194;-79
2023/06/02 05:20:20;;;;;;;16.60;7.47;;;14.20;99.90;;;;;;5073528;28;20579;-79
2023/06/02 05:23:05;;;;;;;24.53;7.40;;;14.30;99.90;;;;;;5073484;28;20320;-80
2023/06/02 05:25:52;;;;;;;15.47;7.10;;;14.20;99.90;;;;;;5058271;28;20590;-80
2023/06/02 05:28:38;;;;;;;16.20;7.27;;;14.40;99.90;;;;;;5058686;28;20307;-79
2023/06/02 05:31:23;;;;;;;18.63;7.83;;;14.30;99.90;;;;;;5073360;28;20212;-78
2023/06/02 05:34:09;;;;;;;12.13;6.70;;;13.90;99.90;;;;;;5073468;28;20217;-80
2023/06/02 05:36:55;;;;;;;16.43;7.10;;;14.00;99.90;;;;;;5073695;28;20291;-79
2023/06/02 05:39:41;;;;;;;16.50;7.13;;;14.30;99.90;;;;;;5058604;28;20701;-80
2023/06/02 05:42:27;;;;;;;14.73;6.87;;;14.50;99.90;;;;;;5073395;28;20193;-80
2023/06/02 05:45:13;;;;;;;14.37;6.93;;;14.60;99.90;;;;;;5057892;28;20303;-80
2023/06/02 05:47:58;;;;;;;13.93;7.03;;;14.50;99.90;;;;;;5073118;28;20209;-79
2023/06/02 05:50:44;;;;;;;17.67;7.17;;;14.60;99.90;;;;;;5057623;28;20693;-80
2023/06/02 05:53:29;;;;;;;13.53;6.53;;;14.70;99.90;;;;;;5072765;28;20243;-79
2023/06/02 05:56:16;;;;;;;12.20;7.00;;;14.70;99.90;;;;;;5072981;28;20312;-78
2023/06/02 05:59:01;;;;;;;15.77;6.77;;;14.80;99.90;;;;;;5072645;28;20208;-78
2023/06/02 06:01:47;;;;;;;16.60;7.50;;;14.80;99.90;;;;;;5072868;28;20193;-79
2023/06/02 06:04:32;;;;;;;15.77;6.97;;;14.90;99.90;;;;;;5072815;28;20216;-79
2023/06/02 06:07:17;;;;;;;13.57;7.80;;;14.90;99.90;;;;;;5072795;28;20283;-79
2023/06/02 06:10:03;;;;;;;11.43;6.70;;;14.80;99.90;;;;;;5072702;28;20221;-79
2023/06/02 06:12:48;;;;;;;13.47;6.40;;;14.50;99.90;;;;;;5057520;28;20217;-78
2023/06/02 06:15:34;;;;;;;15.07;6.73;;;14.70;99.90;;;;;;5072051;28;20271;-79
2023/06/02 06:18:20;;;;;;;14.90;7.07;;;14.70;99.90;;;;;;5057279;28;20190;-78
2023/06/02 06:21:05;;;;;;;12.60;6.60;;;14.60;99.90;;;;;;5057359;28;20228;-78
2023/06/02 06:23:51;;;;;;;11.17;6.57;;;14.70;99.90;;;;;;5072320;28;20684;-78
2023/06/02 06:26:36;;;;;;;13.60;7.30;;;14.90;99.90;;;;;;5057318;28;20828;-78
2023/06/02 06:29:22;;;;;;;15.37;7.10;;;14.90;99.90;;;;;;5072756;28;20221;-79
2023/06/02 06:32:08;;;;;;;12.50;6.77;;;14.80;99.90;;;;;;5072721;28;20206;-79
2023/06/02 06:34:53;;;;;;;15.27;6.63;;;14.80;99.90;;;;;;5057054;28;20220;-78
2023/06/02 06:37:39;;;;;;;15.27;6.73;;;14.80;99.90;;;;;;5072116;28;20209;-76
2023/06/02 06:40:24;;;;;;;14.23;6.60;;;14.70;99.90;;;;;;5072293;28;20340;-78
2023/06/02 06:43:10;;;;;;;13.10;6.60;;;14.80;99.90;;;;;;5057400;28;20287;-79
2023/06/02 06:46:09;;;;;;;15.07;6.80;;;14.50;99.90;;;;;;5059056;28;20332;-81
2023/06/02 06:48:54;;;;;;;15.37;6.80;;;14.30;99.90;;;;;;5071989;28;20265;-77
2023/06/02 06:51:40;;;;;;;12.60;6.07;;;14.10;99.90;;;;;;5071941;28;20228;-76
2023/06/02 06:54:25;;;;;;;11.80;6.47;;;14.10;99.90;;;;;;5076540;28;20247;-78
2023/06/02 06:57:11;;;;;;;16.03;6.50;;;14.00;99.90;;;;;;5076020;28;20205;-78
2023/06/02 06:59:56;;;;;;;14.93;6.27;;;14.00;99.90;;;;;;5060862;28;20704;-76
2023/06/02 07:03:04;;;;;;;14.57;6.83;;;14.00;99.90;;;;;;5064939;28;20266;-77
2023/06/02 07:05:50;;;;;;;15.93;6.60;;;14.00;99.90;;;;;;5076093;28;20220;-77
2023/06/02 07:08:36;;;;;;;12.47;5.97;;;14.10;99.90;;;;;;5076074;28;20200;-76
2023/06/02 07:11:21;;;;;;;12.77;5.97;;;14.00;99.90;;;;;;5076030;28;20177;-77
2023/06/02 07:14:07;;;;;;;11.10;5.87;;;14.10;99.90;;;;;;5075503;28;20248;-76
2023/06/02 07:17:01;;;;;;;12.27;6.30;;;14.10;99.90;;;;;;5075564;28;20243;-77
2023/06/02 07:19:47;;;;;;;11.33;5.37;;;14.00;99.90;;;;;;5075555;28;20751;-77
2023/06/02 07:22:32;;;;;;;10.47;5.97;;;13.70;99.90;;;;;;5075474;28;20198;-76
2023/06/02 07:25:18;;;;;;;9.20;5.27;;;13.50;99.90;;;;;;5075590;28;20244;-77
2023/06/02 07:28:04;;;;;;;15.20;5.67;;;13.60;99.90;;;;;;5075390;28;20580;-78
2023/06/02 07:30:51;;;;;;;9.93;5.43;;;13.70;99.90;;;;;;5075400;28;20697;-77
2023/06/02 07:33:52;;;;;;;15.17;6.30;;;13.60;99.90;;;;;;5075293;28;20372;-76
2023/06/02 07:36:38;;;;;;;11.70;5.70;;;13.70;99.90;;;;;;5075393;28;20197;-77
2023/06/02 07:39:24;;;;;;;12.47;5.60;;;13.70;99.90;;;;;;5075039;28;20602;-77
2023/06/02 07:42:10;;;;;;;12.77;5.30;;;13.70;99.90;;;;;;5060487;28;20248;-77
2023/06/02 07:44:55;;;;;;;10.77;5.67;;;13.90;99.90;;;;;;5059796;28;20680;-77
2023/06/02 07:47:41;;;;;;;11.43;5.30;;;14.10;99.90;;;;;;5074890;28;20224;-77
2023/06/02 07:50:49;;;;;;;16.80;5.17;;;14.00;99.90;;;;;;5075135;28;20283;-78
2023/06/02 07:53:35;;;;;;;12.47;5.30;;;14.10;99.90;;;;;;5074960;28;20557;-78
2023/06/02 07:56:21;;;;;;;11.93;5.43;;;14.10;99.90;;;;;;5074594;28;20237;-77
2023/06/02 07:59:06;;;;;;;9.93;5.00;;;14.00;99.90;;;;;;5074746;28;20255;-76
2023/06/02 08:01:52;;;;;;;7.63;4.70;;;13.80;99.90;;;;;;5074733;28;20204;-76
2023/06/02 08:04:38;;;;;;;8.17;4.77;;;13.80;99.90;;;;;;5074043;28;20268;-77
2023/06/02 08:07:24;;;;;;;11.53;5.30;;;14.30;99.90;;;;;;5074450;28;20580;-77
2023/06/02 08:10:10;;;;;;;9.20;5.00;;;14.80;99.90;;;;;;5074471;28;20225;-76
2023/06/02 08:13:19;;;;;;;12.97;5.00;;;15.10;99.90;;;;;;5074704;28;20258;-76
2023/06/02 08:16:05;;;;;;;9.67;4.87;;;15.30;99.90;;;;;;5059456;28;20225;-77
2023/06/02 08:18:54;;;;;;;7.73;4.50;;;15.30;99.90;;;;;;5074739;28;20344;-76
2023/06/02 08:21:41;;;;;;;14.23;6.20;;;15.20;99.90;;;;;;5074466;28;20193;-77
2023/06/02 08:24:27;;;;;;;11.00;4.73;;;15.20;99.90;;;;;;5074329;28;20717;-77
2023/06/02 08:27:12;;;;;;;8.47;4.40;;;15.30;99.90;;;;;;5074312;28;20720;-75
2023/06/02 08:30:20;;;;;;;9.07;4.57;;;15.60;99.90;;;;;;5062530;28;20748;-78
2023/06/02 08:33:08;;;;;;;11.07;4.30;;;15.70;99.90;;;;;;5073888;28;20271;-76
2023/06/02 08:35:54;;;;;;;9.03;4.10;;;15.90;99.90;;;;;;5058967;28;20225;-76
2023/06/02 08:39:06;;;;;;;10.60;4.50;;;16.10;99.90;;;;;;5074344;28;20633;-77
2023/06/02 08:41:53;;;;;;;9.27;4.10;;;15.80;99.90;;;;;;5058902;28;20209;-78
2023/06/02 08:44:42;;;;;;;10.30;4.40;;;15.80;99.90;;;;;;5073893;28;20221;-77
2023/06/02 08:47:33;;;;;;;11.80;4.60;;;15.90;99.90;;;;;;5059163;28;20708;-77
2023/06/02 08:50:23;;;;;;;8.10;3.90;;;15.60;99.90;;;;;;5058792;28;20717;-76
2023/06/02 08:53:12;;;;;;;6.77;3.90;;;14.80;99.90;;;;;;5059140;28;20236;-77
2023/06/02 08:56:20;;;;;;;10.20;3.63;;;14.70;99.90;;;;;;5074059;28;20193;-77
2023/06/02 08:59:07;;;;;;;10.93;3.90;;;14.60;99.90;;;;;;5058740;28;20547;-76
2023/06/02 09:01:55;;;;;;;11.17;4.30;;;14.90;99.90;;;;;;5073711;28;20197;-76
2023/06/02 09:05:05;;;;;;;9.30;3.70;;;15.00;99.90;;;;;;5062011;28;20213;-76
2023/06/02 09:08:08;;;;;;;11.07;3.80;;;15.30;99.90;;;;;;5058542;28;20217;-75
2023/06/02 09:10:54;;;;;;;10.00;3.90;;;15.70;99.90;;;;;;5073463;28;20631;-77
2023/06/02 09:13:40;;;;;;;9.33;3.90;;;15.90;99.90;;;;;;5073500;28;20244;-76
2023/06/02 09:16:37;;;;;;;8.07;4.00;;;16.00;99.90;;;;;;5072715;28;20260;-75
2023/06/02 09:19:23;;;;;;;8.63;3.83;;;16.40;99.90;;;;;;5074339;28;20222;-74
2023/06/02 09:22:09;;;;;;;8.37;3.93;;;16.70;99.90;;;;;;5074027;28;20198;-75
2023/06/02 09:24:54;;;;;;;7.50;3.57;;;17.00;99.90;;;;;;5073902;28;20311;-76
2023/06/02 09:28:02;;;;;;;10.43;3.70;;;17.00;99.90;;;;;;5061853;28;20280;-75
2023/06/02 09:31:03;;;;;;;9.20;3.80;;;17.10;99.90;;;;;;5058015;28;20295;-76
2023/06/02 09:34:00;;;;;;;11.30;4.00;;;16.60;99.90;;;;;;5072949;28;20209;-77
2023/06/02 09:37:13;;;;;;;6.43;3.47;;;16.40;99.90;;;;;;5061609;28;20169;-76
2023/06/02 09:40:06;;;;;;;9.53;3.60;;;16.50;99.90;;;;;;5072845;28;20303;-76
2023/06/02 09:42:51;;;;;;;8.47;3.73;;;16.40;99.90;;;;;;5072883;28;20268;-76
2023/06/02 09:45:49;;;;;;;12.43;3.43;;;16.20;99.90;;;;;;5072758;28;20225;-76
2023/06/02 09:48:35;;;;;;;9.53;3.67;;;15.90;99.90;;;;;;5072698;28;20225;-76
2023/06/02 09:51:25;;;;;;;10.63;3.60;;;15.70;99.90;;;;;;5072844;28;20577;-76
2023/06/02 09:54:11;;;;;;;10.87;4.13;;;15.30;99.90;;;;;;5057521;28;20703;-77
2023/06/02 09:57:19;;;;;;;9.50;4.20;;;15.20;99.90;;;;;;5061318;28;20225;-76
2023/06/02 10:00:11;;;;;;;10.87;3.97;;;15.00;99.90;;;;;;5072525;28;20220;-77
2023/06/02 10:02:59;;;;;;;7.37;3.40;;;14.70;99.90;;;;;;5058296;28;20289;-78
2023/06/02 10:06:00;;;;;;;6.10;3.57;;;14.50;99.90;;;;;;5072742;28;20319;-76
2023/06/02 10:09:40;;;;;;;7.03;3.47;;;14.40;99.90;;;;;;5072691;28;20229;-77
2023/06/02 10:13:17;;;;;;;7.90;3.60;;;14.20;99.90;;;;;;5072561;28;20213;-77
2023/06/02 10:16:38;;;;;;;9.60;3.70;;;14.20;99.90;;;;;;5052837;28;20593;-77
2023/06/02 10:20:00;;;;;;;8.10;3.87;;;14.10;99.90;;;;;;5072297;28;20221;-78
2023/06/02 10:23:47;;;;;;;8.53;4.20;;;14.10;99.90;;;;;;5061223;28;20208;-78
2023/06/02 10:27:02;;;;;;;9.63;4.37;;;14.20;99.90;;;;;;5072581;28;20204;-79
2023/06/02 10:29:51;;;;;;;9.07;4.40;;;14.10;99.90;;;;;;5052050;28;20671;-78
2023/06/02 10:32:47;;;;;;;9.03;4.07;;;14.20;99.90;;;;;;5072334;28;20271;-78
2023/06/02 10:35:59;;;;;;;9.77;4.20;;;14.40;99.90;;;;;;5071957;28;20229;-77
2023/06/02 10:38:45;;;;;;;12.73;4.33;;;14.40;99.90;;;;;;5071977;28;20701;-77
2023/06/02 10:42:06;;;;;;;8.50;4.10;;;14.50;99.90;;;;;;5057120;28;20753;-79
2023/06/02 10:45:13;;;;;;;8.10;3.97;;;14.60;99.90;;;;;;4990450;28;20258;-79
2023/06/02 10:47:58;;;;;;;7.90;3.87;;;14.70;99.90;;;;;;4990372;28;20731;-78
2023/06/02 10:50:56;;;;;;;8.30;3.90;;;14.70;99.90;;;;;;4990394;28;20339;-78
2023/06/02 10:54:04;;;;;;;8.77;3.40;;;14.70;99.90;;;;;;4976631;28;20620;-77
2023/06/02 10:56:51;;;;;;;9.50;3.80;;;14.90;99.90;;;;;;4976597;28;20276;-78
2023/06/02 10:59:59;;;;;;;8.87;3.30;;;15.00;99.90;;;;;;4979906;28;20628;-78
2023/06/02 11:02:45;;;;;;;5.47;2.73;;;15.00;99.90;;;;;;4976516;28;20223;-76
2023/06/02 11:05:33;;;;;;;9.17;3.20;;;15.00;99.90;;;;;;4976366;28;20228;-78
2023/06/02 11:08:18;;;;;;;4.10;2.30;;;14.70;99.90;;;;;;4990214;28;20295;-77
2023/06/02 11:11:04;;;;;;;5.70;2.20;;;14.60;99.90;;;;;;4976353;28;20224;-78
2023/06/02 11:14:07;;;;;;;5.30;2.30;;;14.50;99.90;;;;;;4976145;28;20711;-77
2023/06/02 11:17:29;;;;;;;3.73;2.10;;;14.50;99.90;;;;;;4976438;28;20203;-77
2023/06/02 11:20:17;;;;;;;7.70;2.23;;;14.60;99.90;;;;;;5056676;28;20232;-77
2023/06/02 11:23:04;;;;;;;5.60;2.30;;;14.70;99.90;;;;;;5056740;28;20209;-76
2023/06/02 11:26:05;;;;;;;5.10;2.17;;;14.90;99.90;;;;;;5056559;28;20575;-77
2023/06/02 11:28:50;;;;;;;6.80;2.40;;;15.30;99.90;;;;;;5044485;28;20219;-77
2023/06/02 11:32:00;;;;;;;4.97;2.20;;;15.30;99.90;;;;;;5060557;28;20250;-77
2023/06/02 11:34:46;;;;;;;4.83;2.33;;;15.30;99.90;;;;;;5056827;28;20233;-78
2023/06/02 11:37:32;;;;;;;6.87;2.20;;;15.20;99.90;;;;;;5056483;28;20198;-77
2023/06/02 11:40:18;;;;;;;9.30;2.40;;;15.10;99.90;;;;;;5075100;28;20229;-77
2023/06/02 11:43:04;;;;;;;8.07;2.57;;;15.10;99.90;;;;;;5075306;28;20198;-77
2023/06/02 11:45:50;;;;;;;4.30;2.30;;;15.10;99.90;;;;;;5060085;28;20724;-77
2023/06/02 11:48:38;;;;;;;9.73;2.47;;;15.00;99.90;;;;;;5059914;28;20225;-77
2023/06/02 11:51:24;;;;;;;5.53;2.27;;;15.00;99.90;;;;;;5075098;28;20320;-77
2023/06/02 11:54:10;;;;;;;7.00;2.33;;;14.90;99.90;;;;;;5059875;28;20229;-77
2023/06/02 11:56:55;;;;;;;8.47;2.30;;;15.00;99.90;;;;;;5059777;28;20290;-78
2023/06/02 12:00:18;;;;;;;6.53;2.03;;;14.90;99.90;;;;;;5075089;28;20247;-78
2023/06/02 12:03:07;;;;;;;6.13;2.20;;;15.00;99.90;;;;;;5060116;28;20225;-77
2023/06/02 12:05:55;;;;;;;3.87;1.90;;;15.00;99.90;;;;;;5060216;28;20229;-78
2023/06/02 12:08:42;;;;;;;4.23;1.77;;;15.00;99.90;;;;;;5075074;28;20303;-78
2023/06/02 12:11:28;;;;;;;6.93;2.30;;;14.90;99.90;;;;;;5074840;28;20623;-79
2023/06/02 12:14:17;;;;;;;5.30;2.03;;;14.90;99.90;;;;;;5059499;28;20259;-78
2023/06/02 12:17:03;;;;;;;4.43;2.10;;;15.00;99.90;;;;;;5074501;28;20252;-78
2023/06/02 12:19:58;;;;;;;4.57;1.90;;;15.00;99.90;;;;;;5074905;28;20245;-77
2023/06/02 12:22:53;;;;;;;4.77;2.20;;;14.80;99.90;;;;;;5074401;28;20225;-76
2023/06/02 12:25:38;;;;;;;6.87;2.30;;;14.70;99.90;;;;;;5074440;28;20220;-79
2023/06/02 12:28:24;;;;;;;8.13;1.90;;;14.70;99.90;;;;;;5074297;28;20280;-76
2023/06/02 12:31:12;;;;;;;5.40;1.83;;;14.50;99.90;;;;;;5074177;28;20225;-78
2023/06/02 12:34:21;;;;;;;4.60;1.90;;;14.60;99.90;;;;;;5074577;28;20264;-78
2023/06/02 12:37:06;;;;;;;6.20;1.70;;;14.60;99.90;;;;;;5059023;28;20209;-77
2023/06/02 12:39:52;;;;;;;3.47;1.67;;;14.50;99.90;;;;;;5074147;28;20255;-79
2023/06/02 12:43:01;;;;;;;3.97;1.70;;;14.50;99.90;;;;;;5074671;28;20205;-78
2023/06/02 12:45:46;;;;;;;4.40;1.70;;;14.30;99.90;;;;;;5074151;28;20228;-78
2023/06/02 12:48:32;;;;;;;4.03;1.70;;;14.10;99.90;;;;;;5074011;28;20225;-79
2023/06/02 12:51:44;;;;;;;4.43;2.07;;;14.00;99.90;;;;;;5073420;28;20243;-78
2023/06/02 12:54:30;;;;;;;5.07;2.00;;;13.90;99.90;;;;;;5073943;28;20221;-77
2023/06/02 12:57:17;;;;;;;5.10;1.93;;;13.80;99.90;;;;;;5074107;28;20186;-79
2023/06/02 13:00:03;;;;;;;4.20;2.07;;;13.90;99.90;;;;;;5058701;28;20241;-79
2023/06/02 13:02:48;;;;;;;7.23;2.10;;;13.80;99.90;;;;;;5073729;28;20321;-80
2023/06/02 13:05:35;;;;;;;4.17;1.63;;;13.80;99.90;;;;;;5073510;28;20228;-80
2023/06/02 13:08:44;;;;;;;3.97;1.67;;;13.80;99.90;;;;;;5073606;28;20224;-79
2023/06/02 13:11:30;;;;;;;8.17;2.30;;;13.80;99.90;;;;;;5058387;28;20557;-79
2023/06/02 13:14:16;;;;;;;5.10;1.63;;;14.00;99.90;;;;;;5073295;28;20601;-79
2023/06/02 13:17:02;;;;;;;4.57;1.80;;;14.20;99.90;;;;;;5058127;28;20220;-78
2023/06/02 13:19:50;;;;;;;5.60;2.00;;;14.30;99.90;;;;;;5058464;28;20232;-78
2023/06/02 13:22:58;;;;;;;4.73;1.80;;;14.40;99.90;;;;;;5061758;28;20185;-78
2023/06/02 13:25:43;;;;;;;5.00;1.70;;;14.40;99.90;;;;;;5073196;28;20221;-80
2023/06/02 13:28:30;;;;;;;4.70;1.47;;;14.60;99.90;;;;;;5073043;28;20243;-77
2023/06/02 13:31:15;;;;;;;4.23;1.87;;;14.70;99.90;;;;;;5073192;28;20268;-78
2023/06/02 13:34:01;;;;;;;3.67;1.80;;;15.00;99.90;;;;;;5058063;28;20684;-77
2023/06/02 13:36:47;;;;;;;4.50;1.93;;;15.00;99.90;;;;;;5072792;28;20324;-77
2023/06/02 13:39:32;;;;;;;2.90;1.63;;;15.00;99.90;;;;;;5057920;28;20271;-76
2023/06/02 13:42:40;;;;;;;6.30;1.70;;;15.40;99.90;;;;;;5061574;28;20197;-77
2023/06/02 13:45:26;;;;;;;4.63;1.50;;;15.60;99.90;;;;;;5072827;28;20228;-77
2023/06/02 13:48:12;;;;;;;2.23;1.40;;;15.90;99.90;;;;;;5057758;28;20747;-76
2023/06/02 13:51:20;;;;;;;3.10;1.43;;;16.30;99.90;;;;;;5073119;28;20233;-77
2023/06/02 13:54:07;;;;;;;2.47;1.40;;;16.80;99.90;;;;;;5072761;28;20205;-79
2023/06/02 13:56:52;;;;;;;4.23;1.40;;;17.40;99.90;;;;;;5057785;28;20328;-78
2023/06/02 14:00:00;;;;;;;3.80;1.33;;;17.50;99.90;;;;;;5072695;28;20293;-77
2023/06/02 14:02:46;;;;;;;4.27;1.50;;;17.40;99.90;;;;;;5072199;28;20201;-76
2023/06/02 14:05:32;;;;;;;2.90;1.30;;;17.80;99.90;;;;;;5072568;28;20271;-78
2023/06/02 14:08:18;;;;;;;2.53;1.37;;;18.30;99.90;;;;;;5072395;28;20573;-78
2023/06/02 14:11:04;;;;;;;4.13;1.70;;;18.60;99.90;;;;;;5057186;28;20225;-77
2023/06/02 14:13:50;;;;;;;4.87;1.93;;;19.00;99.90;;;;;;5072109;28;20327;-77
2023/06/02 14:16:36;;;;;;;3.80;1.50;;;19.20;99.90;;;;;;5057583;28;20965;-78
2023/06/02 14:19:21;;;;;;;3.67;1.60;;;19.80;99.90;;;;;;5072745;28;20744;-78
2023/06/02 14:22:07;;;;;;;3.43;1.33;;;20.10;99.90;;;;;;5057339;28;20647;-78
2023/06/02 14:24:53;;;;;;;2.70;1.50;;;20.70;99.90;;;;;;5057292;28;20267;-78
2023/06/02 14:27:39;;;;;;;5.40;1.67;;;20.80;96.60;;;;;;5056982;28;20304;-78
2023/06/02 14:30:47;;;;;;;5.90;1.87;;;20.60;95.60;;;;;;5060537;28;20630;-79
2023/06/02 14:33:33;;;;;;;4.77;1.60;;;20.20;95.70;;;;;;5057038;28;20197;-78
2023/06/02 14:36:19;;;;;;;4.23;1.70;;;20.20;97.20;;;;;;5057139;28;20198;-78
2023/06/02 14:39:27;;;;;;;3.58;1.52;;;20.60;95.70;;;;;;5060561;28;20251;-77